Time;durP1;ratioP1;P1;durP2;ratioP2;P2;SDS_P1;SDS_P2;PMS_P1;PMS_P2;Temp;Humidity;BMP_temperature;BMP_pressure;BME280_temperature;BME280_humidity;BME280_pressure;Samples;Min_cycle;Max_cycle;Signal;HPM_P1;HPM_P2
2023/05/16 00:01:20;;;;;;;;;;;;;;;;;;5027883;28;19927;-62
2023/05/16 00:03:46;;;;;;;;;;;;;;;;;;5023851;28;19917;-61
2023/05/16 00:06:15;;;;;;;;;;;;;;;;;;5012149;28;19938;-60
2023/05/16 00:08:41;;;;;;;;;;;;;;;;;;5029023;28;19931;-62
2023/05/16 00:11:09;;;;;;;;;;;;;;;;;;5014224;28;19928;-62
2023/05/16 00:13:35;;;;;;;;;;;;;;;;;;5007350;28;19921;-62
2023/05/16 00:16:01;;;;;;;;;;;;;;;;;;5031039;28;20104;-64
2023/05/16 00:21:43;;;;;;;;;;;;;;;;;;5027024;28;19966;-62
2023/05/16 00:24:09;;;;;;;;;;;;;;;;;;5029343;28;20587;-62
2023/05/16 00:26:34;;;;;;;;;;;;;;;;;;5016107;28;19917;-62
2023/05/16 00:29:01;;;;;;;;;;;;;;;;;;5009707;28;20038;-62
2023/05/16 00:31:29;;;;;;;;;;;;;;;;;;5015437;28;19925;-62
2023/05/16 00:33:55;;;;;;;;;;;;;;;;;;5009688;28;19927;-62
2023/05/16 00:36:20;;;;;;;;;;;;;;;;;;5012873;28;20055;-62
2023/05/16 00:38:46;;;;;;;;;;;;;;;;;;5010486;28;19928;-62
2023/05/16 00:41:14;;;;;;;;;;;;;;;;;;5011456;28;20011;-62
2023/05/16 00:43:40;;;;;;;;;;;;;;;;;;4998438;28;19920;-62
2023/05/16 00:46:05;;;;;;;;;;;;;;;;;;5010500;28;20233;-62
2023/05/16 00:48:33;;;;;;;;;;;;;;;;;;5013488;28;19927;-62
2023/05/16 00:51:01;;;;;;;;;;;;;;;;;;5009121;28;20923;-62
2023/05/16 00:53:27;;;;;;;;;;;;;;;;;;5007777;28;20352;-62
2023/05/16 00:55:54;;;;;;;;;;;;;;;;;;5013585;28;19927;-62
2023/05/16 00:58:20;;;;;;;;;;;;;;;;;;4995773;28;20387;-61
2023/05/16 01:00:46;;;;;;;;;;;;;;;;;;5012896;28;19920;-61
2023/05/16 01:03:11;;;;;;;;;;;;;;;;;;5030225;28;20015;-62
2023/05/16 01:05:36;;;;;;;;;;;;;;;;;;4995805;28;20371;-61
2023/05/16 01:14:16;;;;;;;;;;;;;;;;;;5012446;28;19982;-61
2023/05/16 01:16:43;;;;;;;;;;;;;;;;;;5012219;28;19920;-61
2023/05/16 01:19:08;;;;;;;;;;;;;;;;;;4992141;28;19920;-60
2023/05/16 01:21:34;;;;;;;;;;;;;;;;;;5012349;28;20015;-62
2023/05/16 01:24:02;;;;;;;;;;;;;;;;;;5012760;28;20292;-61
2023/05/16 01:26:27;;;;;;;;;;;;;;;;;;4993066;28;19917;-61
2023/05/16 01:28:52;;;;;;;;;;;;;;;;;;5029551;28;19932;-61
2023/05/16 01:31:18;;;;;;;;;;;;;;;;;;4994883;28;19936;-61
2023/05/16 01:33:43;;;;;;;;;;;;;;;;;;4993847;28;19967;-61
2023/05/16 01:36:08;;;;;;;;;;;;;;;;;;5029312;28;20383;-61
2023/05/16 01:38:35;;;;;;;;;;;;;;;;;;5025742;28;19916;-61
2023/05/16 01:41:03;;;;;;;;;;;;;;;;;;5009825;28;19931;-62
2023/05/16 01:43:29;;;;;;;;;;;;;;;;;;5005744;28;19916;-62
2023/05/16 01:45:54;;;;;;;;;;;;;;;;;;5029239;28;19928;-62
2023/05/16 01:48:20;;;;;;;;;;;;;;;;;;5028426;28;19924;-62
2023/05/16 01:50:45;;;;;;;;;;;;;;;;;;5008919;28;20359;-62
2023/05/16 01:53:10;;;;;;;;;;;;;;;;;;5030250;28;19958;-61
2023/05/16 01:55:38;;;;;;;;;;;;;;;;;;5028103;28;21561;-61
2023/05/16 01:58:06;;;;;;;;;;;;;;;;;;5013973;28;19916;-62
2023/05/16 02:00:34;;;;;;;;;;;;;;;;;;5025538;28;19954;-61
2023/05/16 02:03:00;;;;;;;;;;;;;;;;;;4994950;28;19917;-60
2023/05/16 02:05:25;;;;;;;;;;;;;;;;;;5007400;28;20372;-62
2023/05/16 02:07:50;;;;;;;;;;;;;;;;;;4992964;28;19921;-63
2023/05/16 02:10:16;;;;;;;;;;;;;;;;;;4984221;28;20425;-62
2023/05/16 02:12:41;;;;;;;;;;;;;;;;;;5004989;28;19921;-62
2023/05/16 02:15:07;;;;;;;;;;;;;;;;;;5010553;28;19943;-61
2023/05/16 02:17:33;;;;;;;;;;;;;;;;;;5004653;28;19929;-63
2023/05/16 02:20:05;;;;;;;;;;;;;;;;;;5008864;28;19995;-60
2023/05/16 02:22:32;;;;;;;;;;;;;;;;;;5027749;28;20016;-62
2023/05/16 02:25:00;;;;;;;;;;;;;;;;;;5024361;28;19917;-62
2023/05/16 02:27:27;;;;;;;;;;;;;;;;;;5026646;28;19964;-62
2023/05/16 02:29:56;;;;;;;;;;;;;;;;;;5008853;28;20667;-63
2023/05/16 02:32:21;;;;;;;;;;;;;;;;;;5036609;28;19924;-63
2023/05/16 02:34:46;;;;;;;;;;;;;;;;;;5039100;28;19920;-62
2023/05/16 02:37:12;;;;;;;;;;;;;;;;;;5037246;28;20594;-61
2023/05/16 02:39:37;;;;;;;;;;;;;;;;;;5024281;28;19935;-61
2023/05/16 02:42:05;;;;;;;;;;;;;;;;;;5037887;28;19946;-60
2023/05/16 02:47:47;;;;;;;;;;;;;;;;;;5038114;28;21910;-61
2023/05/16 02:50:13;;;;;;;;;;;;;;;;;;5017324;28;19948;-61
2023/05/16 02:52:39;;;;;;;;;;;;;;;;;;5019251;28;19921;-62
2023/05/16 02:55:07;;;;;;;;;;;;;;;;;;5009302;28;19924;-61
2023/05/16 02:57:32;;;;;;;;;;;;;;;;;;5038457;28;19920;-61
2023/05/16 02:59:58;;;;;;;;;;;;;;;;;;5021007;28;19917;-61
2023/05/16 03:02:23;;;;;;;;;;;;;;;;;;5018347;28;21502;-61
2023/05/16 03:04:49;;;;;;;;;;;;;;;;;;5007694;28;19920;-61
2023/05/16 03:07:17;;;;;;;;;;;;;;;;;;5036544;28;19943;-62
2023/05/16 03:09:42;;;;;;;;;;;;;;;;;;5005286;28;19920;-61
2023/05/16 03:12:07;;;;;;;;;;;;;;;;;;5027571;28;20088;-61
2023/05/16 03:14:33;;;;;;;;;;;;;;;;;;5011387;28;19936;-61
2023/05/16 03:17:00;;;;;;;;;;;;;;;;;;5036867;28;20226;-61
2023/05/16 03:19:26;;;;;;;;;;;;;;;;;;5009876;28;19928;-61
2023/05/16 03:25:07;;;;;;;;;;;;;;;;;;5036710;28;19986;-62
2023/05/16 03:27:38;;;;;;;;;;;;;;;;;;5006076;28;19920;-61
2023/05/16 03:30:04;;;;;;;;;;;;;;;;;;5005812;28;20051;-61
2023/05/16 03:32:32;;;;;;;;;;;;;;;;;;5027593;28;20398;-61
2023/05/16 03:34:57;;;;;;;;;;;;;;;;;;5036975;28;19920;-61
2023/05/16 03:37:22;;;;;;;;;;;;;;;;;;5018837;28;19920;-62
2023/05/16 03:39:47;;;;;;;;;;;;;;;;;;5021218;28;20377;-61
2023/05/16 03:42:13;;;;;;;;;;;;;;;;;;5027254;28;19920;-61
2023/05/16 03:44:40;;;;;;;;;;;;;;;;;;5022458;28;19960;-61
2023/05/16 03:47:06;;;;;;;;;;;;;;;;;;5030064;28;20019;-61
2023/05/16 03:49:31;;;;;;;;;;;;;;;;;;5040542;28;19925;-60
2023/05/16 03:51:56;;;;;;;;;;;;;;;;;;5040584;28;20276;-62
2023/05/16 03:54:22;;;;;;;;;;;;;;;;;;5024628;28;19921;-60
2023/05/16 03:56:47;;;;;;;;;;;;;;;;;;5022491;28;20303;-60
2023/05/16 03:59:15;;;;;;;;;;;;;;;;;;5013325;28;19967;-61
2023/05/16 04:01:40;;;;;;;;;;;;;;;;;;5011969;28;19965;-61
2023/05/16 04:04:06;;;;;;;;;;;;;;;;;;5040905;28;20082;-62
2023/05/16 04:06:31;;;;;;;;;;;;;;;;;;5011784;28;20007;-61
2023/05/16 04:08:59;;;;;;;;;;;;;;;;;;5025005;28;20615;-62
2023/05/16 04:11:25;;;;;;;;;;;;;;;;;;5020601;28;20031;-62
2023/05/16 04:13:51;;;;;;;;;;;;;;;;;;5041923;28;19916;-62
2023/05/16 04:16:18;;;;;;;;;;;;;;;;;;5021187;28;19945;-62
2023/05/16 04:18:46;;;;;;;;;;;;;;;;;;5028083;28;19935;-62
2023/05/16 04:21:14;;;;;;;;;;;;;;;;;;5022388;28;19939;-62
2023/05/16 04:23:39;;;;;;;;;;;;;;;;;;5020132;28;20411;-62
2023/05/16 04:26:04;;;;;;;;;;;;;;;;;;5022814;28;19936;-61
2023/05/16 04:28:30;;;;;;;;;;;;;;;;;;5018272;28;19932;-62
2023/05/16 04:30:57;;;;;;;;;;;;;;;;;;5011351;28;19925;-61
2023/05/16 04:33:22;;;;;;;;;;;;;;;;;;5024095;28;19927;-62
2023/05/16 04:35:48;;;;;;;;;;;;;;;;;;5004574;28;19920;-62
2023/05/16 04:38:16;;;;;;;;;;;;;;;;;;5003191;28;20002;-62
2023/05/16 04:40:44;;;;;;;;;;;;;;;;;;4988609;28;20376;-63
2023/05/16 04:43:12;;;;;;;;;;;;;;;;;;4991160;28;19921;-62
2023/05/16 04:45:41;;;;;;;;;;;;;;;;;;5003444;28;19940;-61
2023/05/16 04:48:06;;;;;;;;;;;;;;;;;;5002496;28;20012;-62
2023/05/16 04:50:32;;;;;;;;;;;;;;;;;;4985654;28;19927;-62
2023/05/16 04:53:00;;;;;;;;;;;;;;;;;;5004793;28;19923;-62
2023/05/16 04:55:25;;;;;;;;;;;;;;;;;;5002377;28;19921;-61
2023/05/16 04:57:53;;;;;;;;;;;;;;;;;;5003501;28;19917;-62
2023/05/16 05:00:18;;;;;;;;;;;;;;;;;;5005551;28;19944;-62
2023/05/16 05:02:44;;;;;;;;;;;;;;;;;;4994772;28;20418;-62
2023/05/16 05:05:09;;;;;;;;;;;;;;;;;;5003713;28;20331;-62
2023/05/16 05:07:37;;;;;;;;;;;;;;;;;;5024799;28;20275;-62
2023/05/16 05:10:02;;;;;;;;;;;;;;;;;;5024838;28;19928;-62
2023/05/16 05:12:30;;;;;;;;;;;;;;;;;;4989979;28;19927;-62
2023/05/16 05:15:00;;;;;;;;;;;;;;;;;;4989786;28;19924;-62
2023/05/16 05:17:26;;;;;;;;;;;;;;;;;;5023418;28;19921;-62
2023/05/16 05:19:51;;;;;;;;;;;;;;;;;;4995056;28;19928;-60
2023/05/16 05:22:16;;;;;;;;;;;;;;;;;;5005907;28;20038;-60
2023/05/16 05:24:42;;;;;;;;;;;;;;;;;;5006842;28;20373;-61
2023/05/16 05:27:09;;;;;;;;;;;;;;;;;;4990921;28;20015;-62
2023/05/16 05:29:37;;;;;;;;;;;;;;;;;;5001499;28;20406;-61
2023/05/16 05:32:05;;;;;;;;;;;;;;;;;;5018790;28;20047;-62
2023/05/16 05:34:33;;;;;;;;;;;;;;;;;;5000653;28;20106;-61
2023/05/16 05:37:00;;;;;;;;;;;;;;;;;;4993823;28;19928;-61
2023/05/16 05:39:26;;;;;;;;;;;;;;;;;;5016362;28;19916;-63
2023/05/16 05:41:51;;;;;;;;;;;;;;;;;;4986209;28;19921;-61
2023/05/16 05:44:16;;;;;;;;;;;;;;;;;;4990799;28;19999;-61
2023/05/16 05:46:44;;;;;;;;;;;;;;;;;;5020755;28;19921;-62
2023/05/16 05:49:14;;;;;;;;;;;;;;;;;;5019512;28;19943;-62
2023/05/16 05:51:40;;;;;;;;;;;;;;;;;;5004094;28;21669;-64
2023/05/16 05:54:07;;;;;;;;;;;;;;;;;;5002654;28;20330;-65
2023/05/16 05:56:35;;;;;;;;;;;;;;;;;;5023007;28;19923;-64
2023/05/16 05:59:03;;;;;;;;;;;;;;;;;;5007312;28;19921;-62
2023/05/16 06:01:31;;;;;;;;;;;;;;;;;;5019720;28;19931;-62
2023/05/16 06:04:01;;;;;;;;;;;;;;;;;;5003719;28;20344;-64
2023/05/16 06:06:30;;;;;;;;;;;;;;;;;;5016588;28;20370;-62
2023/05/16 06:08:57;;;;;;;;;;;;;;;;;;4995042;28;19927;-62
2023/05/16 06:11:24;;;;;;;;;;;;;;;;;;4999178;28;20439;-64
2023/05/16 06:13:54;;;;;;;;;;;;;;;;;;4998897;28;20236;-63
2023/05/16 06:16:20;;;;;;;;;;;;;;;;;;5018410;28;19940;-63
2023/05/16 06:22:01;;;;;;;;;;;;;;;;;;5014991;28;19975;-64
2023/05/16 06:24:28;;;;;;;;;;;;;;;;;;5006769;28;20485;-64
2023/05/16 06:26:53;;;;;;;;;;;;;;;;;;5001779;28;20024;-66
2023/05/16 06:29:21;;;;;;;;;;;;;;;;;;4985104;28;19920;-64
2023/05/16 06:31:49;;;;;;;;;;;;;;;;;;5020246;28;19925;-65
2023/05/16 06:34:18;;;;;;;;;;;;;;;;;;5005648;28;20270;-66
2023/05/16 06:36:43;;;;;;;;;;;;;;;;;;5029507;28;20015;-64
2023/05/16 06:39:08;;;;;;;;;;;;;;;;;;5025405;28;19925;-65
2023/05/16 06:41:36;;;;;;;;;;;;;;;;;;5028164;28;19923;-65
2023/05/16 06:44:01;;;;;;;;;;;;;;;;;;5023406;28;19932;-65
2023/05/16 06:46:27;;;;;;;;;;;;;;;;;;5010752;28;19920;-65
2023/05/16 06:48:52;;;;;;;;;;;;;;;;;;5025313;28;19925;-65
2023/05/16 06:51:21;;;;;;;;;;;;;;;;;;5007474;28;19927;-65
2023/05/16 06:53:49;;;;;;;;;;;;;;;;;;5027019;28;20011;-65
2023/05/16 06:56:20;;;;;;;;;;;;;;;;;;4995120;28;20336;-65
2023/05/16 06:58:51;;;;;;;;;;;;;;;;;;4992386;28;19921;-65
2023/05/16 07:01:19;;;;;;;;;;;;;;;;;;5005440;28;19920;-66
2023/05/16 07:03:44;;;;;;;;;;;;;;;;;;5023374;28;19917;-65
2023/05/16 07:06:14;;;;;;;;;;;;;;;;;;5025006;28;19993;-65
2023/05/16 07:08:40;;;;;;;;;;;;;;;;;;4992831;28;20650;-65
2023/05/16 07:11:10;;;;;;;;;;;;;;;;;;4990819;28;19917;-64
2023/05/16 07:13:35;;;;;;;;;;;;;;;;;;5008808;28;20001;-67
2023/05/16 07:16:00;;;;;;;;;;;;;;;;;;5009350;28;19974;-64
2023/05/16 07:18:28;;;;;;;;;;;;;;;;;;5009011;28;19921;-65
2023/05/16 07:20:56;;;;;;;;;;;;;;;;;;5024876;28;19920;-63
2023/05/16 07:23:21;;;;;;;;;;;;;;;;;;5025952;28;19931;-65
2023/05/16 07:25:47;;;;;;;;;;;;;;;;;;5009548;28;19920;-65
2023/05/16 07:28:15;;;;;;;;;;;;;;;;;;4990802;28;19924;-66
2023/05/16 07:30:40;;;;;;;;;;;;;;;;;;5026213;28;20491;-65
2023/05/16 07:33:05;;;;;;;;;;;;;;;;;;5000846;28;20008;-65
2023/05/16 07:35:33;;;;;;;;;;;;;;;;;;4985921;28;20024;-66
2023/05/16 07:37:58;;;;;;;;;;;;;;;;;;5008895;28;19923;-66
2023/05/16 07:40:28;;;;;;;;;;;;;;;;;;4985085;28;19921;-66
2023/05/16 07:42:56;;;;;;;;;;;;;;;;;;4985825;28;20059;-64
2023/05/16 07:45:21;;;;;;;;;;;;;;;;;;5001153;28;20388;-65
2023/05/16 07:47:49;;;;;;;;;;;;;;;;;;4989216;28;19925;-65
2023/05/16 07:50:14;;;;;;;;;;;;;;;;;;5019903;28;20377;-65
2023/05/16 07:52:45;;;;;;;;;;;;;;;;;;5000920;28;19943;-66
2023/05/16 07:58:29;;;;;;;;;;;;;;;;;;5021700;28;20019;-64
2023/05/16 08:00:55;;;;;;;;;;;;;;;;;;5018747;28;19917;-65
2023/05/16 08:03:20;;;;;;;;;;;;;;;;;;5018271;28;20577;-64
2023/05/16 08:05:47;;;;;;;;;;;;;;;;;;5001085;28;19940;-66
2023/05/16 08:08:15;;;;;;;;;;;;;;;;;;4989872;28;19960;-67
2023/05/16 08:10:43;;;;;;;;;;;;;;;;;;5002992;28;20336;-65
2023/05/16 08:13:11;;;;;;;;;;;;;;;;;;4985975;28;19965;-65
2023/05/16 08:15:39;;;;;;;;;;;;;;;;;;5005046;28;20020;-64
2023/05/16 08:18:07;;;;;;;;;;;;;;;;;;5019079;28;20015;-64
2023/05/16 08:20:32;;;;;;;;;;;;;;;;;;4983559;28;19921;-64
2023/05/16 08:23:00;;;;;;;;;;;;;;;;;;4999802;28;19976;-63
2023/05/16 08:25:26;;;;;;;;;;;;;;;;;;5001999;28;20052;-64
2023/05/16 08:27:56;;;;;;;;;;;;;;;;;;4986829;28;20054;-63
2023/05/16 08:30:24;;;;;;;;;;;;;;;;;;5014360;28;20072;-64
2023/05/16 08:32:49;;;;;;;;;;;;;;;;;;5018116;28;19924;-64
2023/05/16 08:35:15;;;;;;;;;;;;;;;;;;5011318;28;20061;-64
2023/05/16 08:37:42;;;;;;;;;;;;;;;;;;5014621;28;20271;-64
2023/05/16 08:40:08;;;;;;;;;;;;;;;;;;5013803;28;19966;-63
2023/05/16 08:42:36;;;;;;;;;;;;;;;;;;5012552;28;19982;-64
2023/05/16 08:45:01;;;;;;;;;;;;;;;;;;4994864;28;19921;-63
2023/05/16 08:47:33;;;;;;;;;;;;;;;;;;5001932;28;20368;-65
2023/05/16 08:49:58;;;;;;;;;;;;;;;;;;5022824;28;20657;-66
2023/05/16 08:55:39;;;;;;;;;;;;;;;;;;5030221;28;19923;-65
2023/05/16 08:58:08;;;;;;;;;;;;;;;;;;5030010;28;20451;-67
2023/05/16 09:00:33;;;;;;;;;;;;;;;;;;5012438;28;19917;-68
2023/05/16 09:02:58;;;;;;;;;;;;;;;;;;5013168;28;20388;-66
2023/05/16 09:05:26;;;;;;;;;;;;;;;;;;4994806;28;19921;-66
2023/05/16 09:07:52;;;;;;;;;;;;;;;;;;5007815;28;19921;-69
2023/05/16 09:10:20;;;;;;;;;;;;;;;;;;5028833;28;19927;-68
2023/05/16 09:12:45;;;;;;;;;;;;;;;;;;5030508;28;19987;-65
2023/05/16 09:18:27;;;;;;;;;;;;;;;;;;5029276;28;19927;-70
2023/05/16 09:20:52;;;;;;;;;;;;;;;;;;4990891;28;19920;-64
2023/05/16 09:23:17;;;;;;;;;;;;;;;;;;4999726;28;20525;-66
2023/05/16 09:25:45;;;;;;;;;;;;;;;;;;5011853;28;19921;-64
2023/05/16 09:28:13;;;;;;;;;;;;;;;;;;5013791;28;19920;-64
2023/05/16 09:30:41;;;;;;;;;;;;;;;;;;5029598;28;19943;-64
2023/05/16 09:33:07;;;;;;;;;;;;;;;;;;4995020;28;19921;-66
2023/05/16 09:35:32;;;;;;;;;;;;;;;;;;5031790;28;19928;-64
2023/05/16 09:37:57;;;;;;;;;;;;;;;;;;4991145;28;20359;-66
2023/05/16 09:40:23;;;;;;;;;;;;;;;;;;5008964;28;19932;-65
2023/05/16 09:42:48;;;;;;;;;;;;;;;;;;5009618;28;19960;-63
2023/05/16 09:45:13;;;;;;;;;;;;;;;;;;4993082;28;19978;-63
2023/05/16 09:50:56;;;;;;;;;;;;;;;;;;5030385;28;19935;-67
2023/05/16 09:53:22;;;;;;;;;;;;;;;;;;5027851;28;19931;-65
2023/05/16 09:55:49;;;;;;;;;;;;;;;;;;5010817;28;19924;-63
2023/05/16 09:58:15;;;;;;;;;;;;;;;;;;5014874;28;20045;-66
2023/05/16 10:00:43;;;;;;;;;;;;;;;;;;4993919;28;19917;-64
2023/05/16 10:03:08;;;;;;;;;;;;;;;;;;5029437;28;19939;-70
2023/05/16 10:05:33;;;;;;;;;;;;;;;;;;5010639;28;20572;-65
2023/05/16 10:07:59;;;;;;;;;;;;;;;;;;5029509;28;19955;-66
2023/05/16 10:10:24;;;;;;;;;;;;;;;;;;4990033;28;20218;-63
2023/05/16 10:12:50;;;;;;;;;;;;;;;;;;5012881;28;19924;-63
2023/05/16 10:15:16;;;;;;;;;;;;;;;;;;4994832;28;19923;-71
2023/05/16 10:17:44;;;;;;;;;;;;;;;;;;5010335;28;19921;-67
2023/05/16 10:20:09;;;;;;;;;;;;;;;;;;5006962;28;19924;-67
2023/05/16 10:22:37;;;;;;;;;;;;;;;;;;5011172;28;20015;-66
2023/05/16 10:25:05;;;;;;;;;;;;;;;;;;5031250;28;19955;-66
2023/05/16 10:27:30;;;;;;;;;;;;;;;;;;5011812;28;20058;-63
2023/05/16 10:29:57;;;;;;;;;;;;;;;;;;5011466;28;19925;-65
2023/05/16 10:32:23;;;;;;;;;;;;;;;;;;5037321;28;19928;-64
2023/05/16 10:34:55;;;;;;;;;;;;;;;;;;5037902;28;19920;-64
2023/05/16 10:37:23;;;;;;;;;;;;;;;;;;5019790;28;20869;-64
2023/05/16 10:39:48;;;;;;;;;;;;;;;;;;5008587;28;20054;-63
2023/05/16 10:45:33;;;;;;;;;;;;;;;;;;5034812;28;19927;-68
2023/05/16 10:47:58;;;;;;;;;;;;;;;;;;5024784;28;19924;-68
2023/05/16 10:57:01;;;;;;;;;;;;;;;;;;5036519;28;19927;-67
2023/05/16 10:59:27;;;;;;;;;;;;;;;;;;5010978;28;19988;-66
2023/05/16 11:01:53;;;;;;;;;;;;;;;;;;5027505;28;19916;-66
2023/05/16 11:04:18;;;;;;;;;;;;;;;;;;5021388;28;19920;-67
2023/05/16 11:06:46;;;;;;;;;;;;;;;;;;5038082;28;19927;-66
2023/05/16 11:09:14;;;;;;;;;;;;;;;;;;5033138;28;19935;-66
2023/05/16 11:11:46;;;;;;;;;;;;;;;;;;5029930;28;19921;-65
2023/05/16 11:14:11;;;;;;;;;;;;;;;;;;5037450;28;20505;-68
2023/05/16 11:16:39;;;;;;;;;;;;;;;;;;5012470;28;19920;-64
2023/05/16 11:19:05;;;;;;;;;;;;;;;;;;5007630;28;19970;-65
2023/05/16 11:21:31;;;;;;;;;;;;;;;;;;5018129;28;19953;-65
2023/05/16 11:23:58;;;;;;;;;;;;;;;;;;5018888;28;20055;-67
2023/05/16 11:26:24;;;;;;;;;;;;;;;;;;5032857;28;19925;-64
2023/05/16 11:28:52;;;;;;;;;;;;;;;;;;5014934;28;19928;-64
2023/05/16 11:31:18;;;;;;;;;;;;;;;;;;5027615;28;19932;-66
2023/05/16 11:33:46;;;;;;;;;;;;;;;;;;5025459;28;19920;-67
2023/05/16 11:36:15;;;;;;;;;;;;;;;;;;5021841;28;20023;-65
2023/05/16 11:38:42;;;;;;;;;;;;;;;;;;5013967;28;19925;-66
2023/05/16 11:41:07;;;;;;;;;;;;;;;;;;5037175;28;19916;-67
2023/05/16 11:43:35;;;;;;;;;;;;;;;;;;5022791;28;19928;-65
2023/05/16 11:46:03;;;;;;;;;;;;;;;;;;5015984;28;20012;-67
2023/05/16 11:48:32;;;;;;;;;;;;;;;;;;5036858;28;19919;-69
2023/05/16 11:50:57;;;;;;;;;;;;;;;;;;5022216;28;20477;-67
2023/05/16 11:53:23;;;;;;;;;;;;;;;;;;5038518;28;19921;-67
2023/05/16 11:55:51;;;;;;;;;;;;;;;;;;5009493;28;19963;-69
2023/05/16 11:58:17;;;;;;;;;;;;;;;;;;5037801;28;19938;-68
2023/05/16 12:00:42;;;;;;;;;;;;;;;;;;5036994;28;19932;-65
2023/05/16 12:03:10;;;;;;;;;;;;;;;;;;5012681;28;19924;-68
2023/05/16 12:05:35;;;;;;;;;;;;;;;;;;5041183;28;20041;-68
2023/05/16 12:08:04;;;;;;;;;;;;;;;;;;5036628;28;19975;-69
2023/05/16 12:10:35;;;;;;;;;;;;;;;;;;5041981;28;20015;-67
2023/05/16 12:13:01;;;;;;;;;;;;;;;;;;5008863;28;19931;-67
2023/05/16 12:15:27;;;;;;;;;;;;;;;;;;5027605;28;20158;-68
2023/05/16 12:17:52;;;;;;;;;;;;;;;;;;5008526;28;20377;-67
2023/05/16 12:20:21;;;;;;;;;;;;;;;;;;5015105;28;19985;-64
2023/05/16 12:22:48;;;;;;;;;;;;;;;;;;5013330;28;19926;-69
2023/05/16 12:25:14;;;;;;;;;;;;;;;;;;5040659;28;19927;-65
2023/05/16 12:27:41;;;;;;;;;;;;;;;;;;5025058;28;20458;-65
2023/05/16 12:30:07;;;;;;;;;;;;;;;;;;5019475;28;19920;-66
2023/05/16 12:32:32;;;;;;;;;;;;;;;;;;5007066;28;19933;-67
2023/05/16 12:34:58;;;;;;;;;;;;;;;;;;5021156;28;20396;-63
2023/05/16 12:37:23;;;;;;;;;;;;;;;;;;5003704;28;19928;-66
2023/05/16 12:39:48;;;;;;;;;;;;;;;;;;4992568;28;21849;-65
2023/05/16 12:42:13;;;;;;;;;;;;;;;;;;5021579;28;20148;-65
2023/05/16 12:44:39;;;;;;;;;;;;;;;;;;5020393;28;20585;-67
2023/05/16 12:47:05;;;;;;;;;;;;;;;;;;5006140;28;19972;-67
2023/05/16 12:49:31;;;;;;;;;;;;;;;;;;4992432;28;19932;-66
2023/05/16 12:52:04;;;;;;;;;;;;;;;;;;5003222;28;19925;-67
2023/05/16 12:54:29;;;;;;;;;;;;;;;;;;5007398;28;19927;-68
2023/05/16 12:56:55;;;;;;;;;;;;;;;;;;4986033;28;19917;-70
2023/05/16 12:59:20;;;;;;;;;;;;;;;;;;4989135;28;20293;-66
2023/05/16 13:01:46;;;;;;;;;;;;;;;;;;4994045;28;19917;-69
2023/05/16 13:04:17;;;;;;;;;;;;;;;;;;4999807;28;20433;-65
2023/05/16 13:06:42;;;;;;;;;;;;;;;;;;5022479;28;19921;-66
2023/05/16 13:09:09;;;;;;;;;;;;;;;;;;5015215;28;19925;-65
2023/05/16 13:11:34;;;;;;;;;;;;;;;;;;4991387;28;20288;-65
2023/05/16 13:14:02;;;;;;;;;;;;;;;;;;4986836;28;20176;-66
2023/05/16 13:16:27;;;;;;;;;;;;;;;;;;4999772;28;20277;-65
2023/05/16 13:18:53;;;;;;;;;;;;;;;;;;5020644;28;21367;-72
2023/05/16 13:21:18;;;;;;;;;;;;;;;;;;5010154;28;19956;-65
2023/05/16 13:27:00;;;;;;;;;;;;;;;;;;5021528;28;19925;-70
2023/05/16 13:29:28;;;;;;;;;;;;;;;;;;5005323;28;19925;-63
2023/05/16 13:35:10;;;;;;;;;;;;;;;;;;5028428;28;20538;-65
2023/05/16 13:37:36;;;;;;;;;;;;;;;;;;5026454;28;19916;-67
2023/05/16 13:40:07;;;;;;;;;;;;;;;;;;5025040;28;19934;-68
2023/05/16 13:42:32;;;;;;;;;;;;;;;;;;5012556;28;19924;-68
2023/05/16 13:44:58;;;;;;;;;;;;;;;;;;5007301;28;19920;-72
2023/05/16 13:47:23;;;;;;;;;;;;;;;;;;5007281;28;19929;-68
2023/05/16 13:49:54;;;;;;;;;;;;;;;;;;5028589;28;19965;-66
2023/05/16 13:52:20;;;;;;;;;;;;;;;;;;5006536;28;20411;-68
2023/05/16 13:54:45;;;;;;;;;;;;;;;;;;5028097;28;20079;-74
2023/05/16 13:57:13;;;;;;;;;;;;;;;;;;4994009;28;20291;-65
2023/05/16 13:59:41;;;;;;;;;;;;;;;;;;5028383;28;19951;-67
2023/05/16 14:02:06;;;;;;;;;;;;;;;;;;5006504;28;20490;-66
2023/05/16 14:04:34;;;;;;;;;;;;;;;;;;4994831;28;19976;-66
2023/05/16 14:07:02;;;;;;;;;;;;;;;;;;5007203;28;19927;-62
2023/05/16 14:09:27;;;;;;;;;;;;;;;;;;5005467;28;19928;-66
2023/05/16 14:11:58;;;;;;;;;;;;;;;;;;4995137;28;19947;-66
2023/05/16 14:14:23;;;;;;;;;;;;;;;;;;5009619;28;20343;-67
2023/05/16 14:16:49;;;;;;;;;;;;;;;;;;5017177;28;20172;-66
2023/05/16 14:19:15;;;;;;;;;;;;;;;;;;5028089;28;19921;-68
2023/05/16 14:21:40;;;;;;;;;;;;;;;;;;5001222;28;19924;-68
2023/05/16 14:24:08;;;;;;;;;;;;;;;;;;5008294;28;21739;-71
2023/05/16 14:26:34;;;;;;;;;;;;;;;;;;4994030;28;19920;-68
2023/05/16 14:29:02;;;;;;;;;;;;;;;;;;4991546;28;19931;-65
2023/05/16 14:31:27;;;;;;;;;;;;;;;;;;5013571;28;19929;-69
2023/05/16 14:33:52;;;;;;;;;;;;;;;;;;5021626;28;19931;-66
2023/05/16 14:36:18;;;;;;;;;;;;;;;;;;5023876;28;19989;-68
2023/05/16 14:38:43;;;;;;;;;;;;;;;;;;5019145;28;20003;-65
2023/05/16 14:41:11;;;;;;;;;;;;;;;;;;5012854;28;19923;-63
2023/05/16 14:43:38;;;;;;;;;;;;;;;;;;5010053;28;20025;-64
2023/05/16 14:46:03;;;;;;;;;;;;;;;;;;5020163;28;19927;-63
2023/05/16 14:48:28;;;;;;;;;;;;;;;;;;5018627;28;20019;-65
2023/05/16 14:50:53;;;;;;;;;;;;;;;;;;5023042;28;20011;-65
2023/05/16 14:53:20;;;;;;;;;;;;;;;;;;5017614;28;20379;-67
2023/05/16 14:55:48;;;;;;;;;;;;;;;;;;5024552;28;20409;-63
2023/05/16 14:58:13;;;;;;;;;;;;;;;;;;5029351;28;20405;-63
2023/05/16 15:00:42;;;;;;;;;;;;;;;;;;5026983;28;20367;-68
2023/05/16 15:03:07;;;;;;;;;;;;;;;;;;5011589;28;20055;-64
2023/05/16 15:05:33;;;;;;;;;;;;;;;;;;5022164;28;19967;-70
2023/05/16 15:07:59;;;;;;;;;;;;;;;;;;5019472;28;19920;-67
2023/05/16 15:10:26;;;;;;;;;;;;;;;;;;5010451;28;20365;-65
2023/05/16 15:12:51;;;;;;;;;;;;;;;;;;5026480;28;19931;-63
2023/05/16 15:15:17;;;;;;;;;;;;;;;;;;5026168;28;19939;-64
2023/05/16 15:17:42;;;;;;;;;;;;;;;;;;5027419;28;20523;-65
2023/05/16 15:20:08;;;;;;;;;;;;;;;;;;5007385;28;19920;-67
2023/05/16 15:22:35;;;;;;;;;;;;;;;;;;5011288;28;19978;-66
2023/05/16 15:25:01;;;;;;;;;;;;;;;;;;5007466;28;19921;-72
2023/05/16 15:27:26;;;;;;;;;;;;;;;;;;5021080;28;19929;-62
2023/05/16 15:29:54;;;;;;;;;;;;;;;;;;5023229;28;20283;-64
2023/05/16 15:32:20;;;;;;;;;;;;;;;;;;5002012;28;19929;-67
2023/05/16 15:34:48;;;;;;;;;;;;;;;;;;4983257;28;19976;-66
2023/05/16 15:37:13;;;;;;;;;;;;;;;;;;4997900;28;19927;-67
2023/05/16 15:39:39;;;;;;;;;;;;;;;;;;4985582;28;19921;-67
2023/05/16 15:42:05;;;;;;;;;;;;;;;;;;4988841;28;19921;-68
2023/05/16 15:44:33;;;;;;;;;;;;;;;;;;5007529;28;19920;-66
2023/05/16 15:46:58;;;;;;;;;;;;;;;;;;5018486;28;19920;-67
2023/05/16 15:49:23;;;;;;;;;;;;;;;;;;4991838;28;19978;-66
2023/05/16 15:51:51;;;;;;;;;;;;;;;;;;5014719;28;20284;-68
2023/05/16 15:57:36;;;;;;;;;;;;;;;;;;5017754;28;19927;-64
2023/05/16 16:00:04;;;;;;;;;;;;;;;;;;5007202;28;19979;-66
2023/05/16 16:02:29;;;;;;;;;;;;;;;;;;5015751;28;20337;-66
2023/05/16 16:04:57;;;;;;;;;;;;;;;;;;5018317;28;19929;-67
2023/05/16 16:07:24;;;;;;;;;;;;;;;;;;5015039;28;20358;-68
2023/05/16 16:09:50;;;;;;;;;;;;;;;;;;5001613;28;19921;-67
2023/05/16 16:12:18;;;;;;;;;;;;;;;;;;5016595;28;20241;-68
2023/05/16 16:14:43;;;;;;;;;;;;;;;;;;5003117;28;19975;-67
2023/05/16 16:17:11;;;;;;;;;;;;;;;;;;5004279;28;19920;-68
2023/05/16 16:19:36;;;;;;;;;;;;;;;;;;5002181;28;20430;-69
2023/05/16 16:22:02;;;;;;;;;;;;;;;;;;5021801;28;19924;-69
2023/05/16 16:24:30;;;;;;;;;;;;;;;;;;5019817;28;20335;-69
2023/05/16 16:26:55;;;;;;;;;;;;;;;;;;4991186;28;19916;-68
2023/05/16 16:29:21;;;;;;;;;;;;;;;;;;5017874;28;19948;-69
2023/05/16 16:31:46;;;;;;;;;;;;;;;;;;5002613;28;19998;-68
2023/05/16 16:34:14;;;;;;;;;;;;;;;;;;5008564;28;19982;-69
2023/05/16 16:36:44;;;;;;;;;;;;;;;;;;5024800;28;20356;-68
2023/05/16 16:39:12;;;;;;;;;;;;;;;;;;5021735;28;19923;-65
2023/05/16 16:41:41;;;;;;;;;;;;;;;;;;4994236;28;20379;-68
2023/05/16 16:44:06;;;;;;;;;;;;;;;;;;5006440;28;19923;-65
2023/05/16 16:46:32;;;;;;;;;;;;;;;;;;5012439;28;20016;-70
2023/05/16 16:48:57;;;;;;;;;;;;;;;;;;5026817;28;19943;-69
2023/05/16 16:51:22;;;;;;;;;;;;;;;;;;5009357;28;20289;-69
2023/05/16 16:53:47;;;;;;;;;;;;;;;;;;5007889;28;20460;-69
2023/05/16 16:56:15;;;;;;;;;;;;;;;;;;5028000;28;19975;-69
2023/05/16 16:58:41;;;;;;;;;;;;;;;;;;5008169;28;19916;-68
2023/05/16 17:01:08;;;;;;;;;;;;;;;;;;5025039;28;20477;-68
2023/05/16 17:03:36;;;;;;;;;;;;;;;;;;5011328;28;19993;-69
2023/05/16 17:06:04;;;;;;;;;;;;;;;;;;4993498;28;20390;-71
2023/05/16 17:08:30;;;;;;;;;;;;;;;;;;5009073;28;19921;-70
2023/05/16 17:10:58;;;;;;;;;;;;;;;;;;5028354;28;20031;-67
2023/05/16 17:13:24;;;;;;;;;;;;;;;;;;4993276;28;19990;-69
2023/05/16 17:15:49;;;;;;;;;;;;;;;;;;5026714;28;19917;-73
2023/05/16 17:18:14;;;;;;;;;;;;;;;;;;4993891;28;19928;-70
2023/05/16 17:20:43;;;;;;;;;;;;;;;;;;5028211;28;19925;-66
2023/05/16 17:23:11;;;;;;;;;;;;;;;;;;5010307;28;19924;-70
2023/05/16 17:25:36;;;;;;;;;;;;;;;;;;5027567;28;21173;-66
2023/05/16 17:28:04;;;;;;;;;;;;;;;;;;5010074;28;19941;-71
2023/05/16 17:30:29;;;;;;;;;;;;;;;;;;5026501;28;20802;-67
2023/05/16 17:32:57;;;;;;;;;;;;;;;;;;5027144;28;19929;-68